Time;durP1;ratioP1;P1;durP2;ratioP2;P2;SDS_P1;SDS_P2;PMS_P1;PMS_P2;Temp;Humidity;BMP_temperature;BMP_pressure;BME280_temperature;BME280_humidity;BME280_pressure;Samples;Min_cycle;Max_cycle;Signal;HPM_P1;HPM_P2
2022/09/02 00:01:54;;;;;;;2.22;1.48;;;;;;;23.81;48.70;100845.28;4847999;29;20496;-83
2022/09/02 00:04:24;;;;;;;4.22;1.50;;;;;;;23.87;48.53;100846.59;4859859;29;20076;-84
2022/09/02 00:06:53;;;;;;;3.47;1.50;;;;;;;23.76;48.53;100844.38;4859705;29;20697;-83
2022/09/02 00:09:23;;;;;;;1.50;1.38;;;;;;;23.83;48.60;100829.75;4859554;29;20057;-83
2022/09/02 00:11:53;;;;;;;2.35;1.60;;;;;;;23.78;48.97;100826.44;4859616;29;20061;-85
2022/09/02 00:14:26;;;;;;;6.68;1.58;;;;;;;23.62;48.75;100822.50;4860168;29;20061;-83
2022/09/02 00:16:54;;;;;;;4.15;1.70;;;;;;;23.59;49.45;100822.41;4860216;29;20050;-89
2022/09/02 00:19:24;;;;;;;3.80;1.73;;;;;;;23.68;49.04;100822.22;4859523;29;20774;-81
2022/09/02 00:21:54;;;;;;;4.63;1.73;;;;;;;23.79;49.08;100816.88;4859989;29;20401;-83
2022/09/02 00:24:23;;;;;;;2.10;1.33;;;;;;;23.79;48.96;100823.28;4860010;29;20054;-83
2022/09/02 00:26:52;;;;;;;1.45;1.35;;;;;;;23.94;48.39;100818.00;4857985;29;20057;-83
2022/09/02 00:29:25;;;;;;;1.70;1.60;;;;;;;23.74;48.98;100815.16;4859135;29;20066;-83
2022/09/02 00:31:54;;;;;;;2.00;1.67;;;;;;;23.55;49.93;100822.34;4858606;29;20057;-83
2022/09/02 00:34:22;;;;;;;2.45;1.30;;;;;;;23.42;50.26;100813.25;4859718;29;20488;-83
2022/09/02 00:36:50;;;;;;;2.75;1.42;;;;;;;23.46;50.76;100818.94;4851011;29;20409;-83
2022/09/02 00:39:19;;;;;;;2.63;1.52;;;;;;;23.34;50.79;100819.84;4855423;29;20053;-84
2022/09/02 00:41:47;;;;;;;12.32;2.50;;;;;;;23.54;50.73;100823.53;4859647;29;20081;-83
2022/09/02 00:44:17;;;;;;;2.38;1.73;;;;;;;23.28;51.08;100824.06;4859647;29;20424;-82
2022/09/02 00:46:45;;;;;;;3.70;1.50;;;;;;;23.18;51.41;100823.44;4867349;29;20049;-82
2022/09/02 00:49:23;;;;;;;3.20;1.90;;;;;;;23.33;51.26;100829.41;4858352;29;20499;-82
2022/09/02 00:52:03;;;;;;;2.15;1.65;;;;;;;23.42;51.38;100827.22;4848049;29;20061;-82
2022/09/02 00:54:38;;;;;;;2.00;1.40;;;;;;;23.31;51.29;100826.19;4859116;29;20405;-84
2022/09/02 00:57:11;;;;;;;2.00;1.80;;;;;;;23.41;52.20;100825.59;4859521;29;20064;-83
2022/09/02 00:59:49;;;;;;;2.40;1.42;;;;;;;23.51;51.05;100829.81;4859486;29;20412;-83
2022/09/02 01:02:18;;;;;;;2.22;1.95;;;;;;;23.46;51.01;100818.94;4859010;29;20524;-82
2022/09/02 01:04:46;;;;;;;1.65;1.55;;;;;;;23.44;51.68;100821.28;4859325;29;20049;-83
2022/09/02 01:07:14;;;;;;;2.67;1.90;;;;;;;23.38;51.90;100831.09;4860454;29;20057;-83
2022/09/02 01:09:44;;;;;;;2.30;1.60;;;;;;;23.33;52.25;100819.06;4874899;29;20046;-83
2022/09/02 01:12:13;;;;;;;4.70;1.52;;;;;;;23.40;51.47;100828.78;4860811;29;20056;-83
2022/09/02 01:14:41;;;;;;;1.80;1.70;;;;;;;23.39;51.25;100821.56;4863174;29;20072;-83
2022/09/02 01:17:09;;;;;;;2.35;1.33;;;;;;;23.37;51.98;100830.31;4862666;29;20057;-82
2022/09/02 01:19:43;;;;;;;2.45;1.63;;;;;;;23.47;50.95;100818.56;4862678;29;20416;-82
2022/09/02 01:22:20;;;;;;;3.17;1.40;;;;;;;23.45;51.01;100831.28;4863066;29;20053;-83
2022/09/02 01:24:49;;;;;;;5.47;1.85;;;;;;;23.53;50.71;100823.88;4874951;29;20055;-82
2022/09/02 01:27:21;;;;;;;2.15;1.35;;;;;;;23.76;50.15;100824.03;4862313;29;20068;-83
2022/09/02 01:29:51;;;;;;;1.80;1.70;;;;;;;23.62;50.85;100818.91;4862422;29;20052;-83
2022/09/02 01:32:21;;;;;;;2.75;1.60;;;;;;;23.62;50.19;100816.13;4861626;29;20049;-83
2022/09/02 01:34:49;;;;;;;2.38;1.80;;;;;;;23.54;50.06;100820.72;4892270;29;20049;-83
2022/09/02 01:37:18;;;;;;;1.88;1.77;;;;;;;23.38;50.89;100815.19;4857611;29;20504;-83
2022/09/02 01:39:47;;;;;;;1.75;1.65;;;;;;;23.40;50.78;100814.81;4862367;29;20053;-83
2022/09/02 01:42:15;;;;;;;2.53;1.33;;;;;;;23.45;50.41;100814.50;4862481;29;20060;-82
2022/09/02 01:44:43;;;;;;;1.83;1.42;;;;;;;23.28;50.66;100810.94;4876713;29;20052;-83
2022/09/02 01:47:15;;;;;;;2.65;1.85;;;;;;;23.42;50.59;100816.03;4869373;29;20045;-82
2022/09/02 01:49:45;;;;;;;2.67;2.20;;;;;;;23.31;50.71;100815.81;4876412;29;20049;-83
2022/09/02 01:52:14;;;;;;;4.30;1.50;;;;;;;23.30;50.72;100808.56;4860630;29;20046;-82
2022/09/02 01:54:43;;;;;;;2.15;1.20;;;;;;;23.35;51.72;100804.72;4861598;29;20049;-82
2022/09/02 01:57:12;;;;;;;2.70;1.83;;;;;;;23.34;50.73;100808.69;4872065;29;20050;-82
2022/09/02 01:59:42;;;;;;;1.17;1.08;;;;;;;23.25;50.83;100808.84;4860743;29;20037;-83
2022/09/02 02:02:11;;;;;;;1.45;1.35;;;;;;;23.23;50.44;100802.81;4862309;29;20057;-83
2022/09/02 02:04:41;;;;;;;1.52;1.42;;;;;;;23.22;50.98;100807.59;4860267;29;20049;-82
2022/09/02 02:07:09;;;;;;;1.48;1.38;;;;;;;23.07;50.71;100802.84;4862431;29;20056;-82
2022/09/02 02:09:37;;;;;;;3.53;1.55;;;;;;;23.21;50.79;100788.41;4861771;29;20493;-82
2022/09/02 02:12:06;;;;;;;3.15;1.55;;;;;;;23.28;50.43;100793.34;4890084;29;20064;-82
2022/09/02 02:14:35;;;;;;;2.67;1.88;;;;;;;23.37;51.20;100788.44;4876613;29;20045;-82
2022/09/02 02:17:04;;;;;;;1.65;1.55;;;;;;;23.48;51.00;100795.06;4860483;29;20054;-82
2022/09/02 02:19:33;;;;;;;2.15;1.30;;;;;;;23.22;50.74;100798.41;4860529;29;20416;-82
2022/09/02 02:22:01;;;;;;;1.98;1.40;;;;;;;23.27;51.10;100792.53;4890891;29;20378;-82
2022/09/02 02:24:30;;;;;;;2.45;1.80;;;;;;;23.45;51.38;100795.78;4860870;29;20053;-82
2022/09/02 02:26:58;;;;;;;1.55;1.33;;;;;;;23.56;50.32;100793.22;4861930;29;20053;-82
2022/09/02 02:29:26;;;;;;;1.60;1.50;;;;;;;23.52;50.65;100786.78;4876226;29;20159;-82
2022/09/02 02:31:54;;;;;;;3.75;1.42;;;;;;;23.55;49.94;100785.25;4860359;29;20401;-82
2022/09/02 02:34:22;;;;;;;3.40;1.70;;;;;;;23.58;49.90;100784.50;4875930;29;20053;-82
2022/09/02 02:36:51;;;;;;;2.38;1.88;;;;;;;23.56;50.92;100781.28;4870226;29;20049;-82
2022/09/02 02:39:19;;;;;;;1.65;1.45;;;;;;;23.42;50.52;100776.16;4861722;29;20045;-83
2022/09/02 02:41:47;;;;;;;2.90;1.77;;;;;;;23.35;50.93;100771.22;4861457;29;20057;-82
2022/09/02 02:44:16;;;;;;;1.67;1.48;;;;;;;23.43;50.59;100774.97;4860390;29;20057;-82
2022/09/02 02:46:44;;;;;;;1.25;1.20;;;;;;;23.40;50.80;100776.53;4861296;29;20064;-82
2022/09/02 02:49:12;;;;;;;1.65;1.55;;;;;;;23.45;50.39;100779.03;4875527;29;20054;-82
2022/09/02 02:51:41;;;;;;;4.18;1.50;;;;;;;23.29;50.70;100779.03;4858979;29;20057;-82
2022/09/02 02:54:10;;;;;;;4.03;1.75;;;;;;;23.35;50.76;100779.59;4861515;29;20053;-82
2022/09/02 02:56:38;;;;;;;2.88;1.60;;;;;;;23.44;50.10;100780.22;4891163;29;20053;-82
2022/09/02 02:59:06;;;;;;;1.85;1.60;;;;;;;23.58;49.84;100784.50;4875445;29;20045;-82
2022/09/02 03:01:34;;;;;;;1.85;1.60;;;;;;;23.55;49.92;100786.03;4860509;29;20050;-83
2022/09/02 03:04:05;;;;;;;1.50;1.40;;;;;;;23.59;50.82;100775.75;4875682;29;20394;-82
2022/09/02 03:06:34;;;;;;;2.17;1.40;;;;;;;23.59;50.46;100775.75;4859814;29;20064;-82
2022/09/02 03:09:04;;;;;;;1.63;1.45;;;;;;;23.52;50.49;100764.44;4890878;29;20037;-82
2022/09/02 03:11:32;;;;;;;1.50;1.40;;;;;;;23.31;51.49;100771.13;4859367;29;20050;-82
2022/09/02 03:14:00;;;;;;;3.30;1.48;;;;;;;23.28;50.97;100765.44;4844879;29;20053;-82
2022/09/02 03:16:28;;;;;;;2.20;1.45;;;;;;;23.40;50.50;100758.97;4860854;29;20516;-82
2022/09/02 03:18:56;;;;;;;2.05;1.50;;;;;;;23.39;50.66;100760.13;4861383;29;20511;-82
2022/09/02 03:21:24;;;;;;;1.98;1.60;;;;;;;23.27;50.63;100763.81;4858185;29;20053;-82
2022/09/02 03:23:53;;;;;;;3.17;1.45;;;;;;;23.14;51.17;100758.34;4859735;29;20054;-82
2022/09/02 03:26:25;;;;;;;2.45;1.20;;;;;;;23.00;51.17;100761.59;4859246;29;20056;-82
2022/09/02 03:28:55;;;;;;;1.83;1.67;;;;;;;23.31;50.97;100759.97;4859536;29;20405;-81
2022/09/02 03:31:26;;;;;;;4.00;1.45;;;;;;;23.22;50.39;100765.72;4865943;29;20060;-81
2022/09/02 03:33:55;;;;;;;1.73;1.42;;;;;;;23.43;50.07;100761.84;4872099;29;20068;-82
2022/09/02 03:36:34;;;;;;;1.52;1.42;;;;;;;23.16;50.54;100772.75;4860543;29;20054;-82
2022/09/02 03:39:03;;;;;;;2.03;1.27;;;;;;;23.08;50.58;100771.75;4859143;29;20544;-82
2022/09/02 03:41:37;;;;;;;1.42;1.33;;;;;;;23.00;51.40;100767.19;4870176;29;20760;-82
2022/09/02 03:44:05;;;;;;;5.22;1.63;;;;;;;23.18;50.46;100769.59;4859654;29;20049;-83
2022/09/02 03:46:34;;;;;;;1.67;1.58;;;;;;;23.20;51.84;100767.25;4859410;29;20056;-82
2022/09/02 03:49:03;;;;;;;1.92;1.77;;;;;;;23.12;51.65;100765.47;4859465;29;20069;-82
2022/09/02 03:51:31;;;;;;;4.47;1.83;;;;;;;23.07;50.78;100761.78;4859724;29;20049;-82
2022/09/02 03:54:02;;;;;;;1.52;1.42;;;;;;;23.09;51.56;100767.00;4874235;29;20045;-82
2022/09/02 03:56:31;;;;;;;1.98;1.77;;;;;;;23.07;50.84;100764.56;4874716;29;20038;-83
2022/09/02 03:58:59;;;;;;;1.63;1.50;;;;;;;23.11;51.13;100763.84;4874283;29;20054;-82
2022/09/02 04:01:28;;;;;;;2.00;1.50;;;;;;;23.18;50.74;100770.38;4855665;29;20057;-82
2022/09/02 04:04:04;;;;;;;2.97;1.60;;;;;;;23.01;51.17;100768.78;4889276;29;20061;-82
2022/09/02 04:06:34;;;;;;;1.42;1.33;;;;;;;22.91;51.89;100763.75;4852212;29;20053;-82
2022/09/02 04:09:05;;;;;;;2.13;1.80;;;;;;;22.96;50.82;100763.50;4858587;29;20072;-82
2022/09/02 04:11:33;;;;;;;3.60;1.70;;;;;;;22.87;50.88;100762.88;4843497;29;20049;-82
2022/09/02 04:14:01;;;;;;;1.60;1.50;;;;;;;22.85;51.13;100760.44;4859429;29;20057;-82
2022/09/02 04:16:30;;;;;;;2.78;1.77;;;;;;;22.82;51.06;100767.53;4858437;29;20050;-82
2022/09/02 04:19:04;;;;;;;1.92;1.73;;;;;;;22.65;51.42;100773.47;4873745;29;20488;-82
2022/09/02 04:21:34;;;;;;;2.22;1.42;;;;;;;22.71;51.70;100774.81;4858433;29;20497;-82
2022/09/02 04:24:08;;;;;;;1.52;1.42;;;;;;;22.83;51.94;100779.53;4873494;29;20057;-81
2022/09/02 04:26:38;;;;;;;1.67;1.45;;;;;;;22.75;51.74;100770.16;4873402;29;20048;-82
2022/09/02 04:29:14;;;;;;;2.15;1.85;;;;;;;22.84;51.54;100778.34;4869176;29;20500;-80
2022/09/02 04:31:43;;;;;;;3.17;1.60;;;;;;;22.85;51.80;100781.94;4852683;29;20068;-75
2022/09/02 04:34:12;;;;;;;6.25;1.80;;;;;;;23.38;51.08;100787.25;4843476;29;20409;-76
2022/09/02 04:36:41;;;;;;;1.80;1.60;;;;;;;23.75;49.62;100780.47;4850744;29;20058;-76
2022/09/02 04:39:11;;;;;;;1.58;1.48;;;;;;;23.87;49.25;100785.13;4853775;29;20057;-76
2022/09/02 04:41:39;;;;;;;3.17;1.60;;;;;;;23.85;49.45;100777.09;4827702;29;20050;-76
2022/09/02 04:44:10;;;;;;;1.73;1.50;;;;;;;24.06;48.46;100781.53;4851601;29;20050;-76
2022/09/02 04:46:41;;;;;;;5.05;1.50;;;;;;;24.21;48.01;100784.63;4838812;29;20058;-76
2022/09/02 04:49:14;;;;;;;2.33;1.52;;;;;;;24.27;47.37;100788.75;4844420;29;20054;-76
2022/09/02 04:51:44;;;;;;;1.83;1.70;;;;;;;24.18;47.50;100783.38;4858971;29;20453;-76
2022/09/02 04:54:13;;;;;;;1.80;1.42;;;;;;;24.26;47.17;100793.53;4855499;29;20061;-76
2022/09/02 04:56:45;;;;;;;1.70;1.60;;;;;;;24.40;47.56;100798.59;4857618;29;20045;-76
2022/09/02 04:59:14;;;;;;;1.58;1.48;;;;;;;24.22;47.42;100794.63;4843417;29;20056;-76
2022/09/02 05:01:51;;;;;;;2.38;1.77;;;;;;;24.32;47.68;100805.22;4841008;29;20053;-76
2022/09/02 05:04:25;;;;;;;;;;;;;;;24.40;46.89;100798.59;4890046;29;20052;-77
2022/09/02 05:06:54;;;;;;;1.55;1.45;;;;;;;24.15;46.49;100790.50;4857643;29;19931;-77
2022/09/02 05:09:23;;;;;;;3.67;1.67;;;;;;;24.11;45.87;100789.66;4841886;29;20077;-77
2022/09/02 05:11:56;;;;;;;2.92;1.70;;;;;;;24.20;45.15;100797.00;4842354;29;20046;-78
2022/09/02 05:14:27;;;;;;;1.50;1.30;;;;;;;24.42;46.42;100801.84;4888352;29;20052;-77
2022/09/02 05:17:00;;;;;;;1.63;1.50;;;;;;;24.25;45.68;100800.28;4884935;29;20038;-76
2022/09/02 05:19:36;;;;;;;2.55;1.60;;;;;;;24.48;45.24;100798.75;4853684;29;20050;-76
2022/09/02 05:22:04;;;;;;;4.78;2.00;;;;;;;24.46;46.12;100803.88;4859436;29;20062;-78
2022/09/02 05:24:36;;;;;;;2.67;2.25;;;;;;;24.51;46.37;100790.41;4857682;29;20042;-77
2022/09/02 05:27:08;;;;;;;2.90;1.52;;;;;;;24.60;45.13;100803.34;4871402;29;20052;-77
2022/09/02 05:29:36;;;;;;;1.40;1.30;;;;;;;24.60;45.37;100801.38;4859400;29;20057;-77
2022/09/02 05:32:07;;;;;;;1.40;1.30;;;;;;;24.71;45.32;100793.16;4859899;29;20061;-76
2022/09/02 05:34:37;;;;;;;1.88;1.55;;;;;;;24.64;45.35;100805.00;4862630;29;20041;-78
2022/09/02 05:37:06;;;;;;;2.92;1.38;;;;;;;24.49;43.53;100808.75;4868864;29;20053;-77
2022/09/02 05:39:35;;;;;;;1.50;1.30;;;;;;;24.06;45.10;100801.09;4854544;29;20048;-77
2022/09/02 05:42:05;;;;;;;1.92;1.75;;;;;;;24.34;44.82;100802.06;4861962;29;20050;-77
2022/09/02 05:44:35;;;;;;;1.95;1.33;;;;;;;24.41;45.30;100805.81;4864496;29;20471;-77
2022/09/02 05:47:05;;;;;;;1.80;1.70;;;;;;;24.36;44.44;100810.88;4873528;29;20054;-76
2022/09/02 05:49:33;;;;;;;1.25;1.10;;;;;;;24.57;44.73;100818.88;4858047;29;20080;-76
2022/09/02 05:52:10;;;;;;;1.70;1.60;;;;;;;24.70;44.64;100809.13;4873569;29;20048;-76
2022/09/02 05:54:43;;;;;;;2.13;1.45;;;;;;;24.76;44.25;100815.25;4860960;29;20058;-76
2022/09/02 05:57:16;;;;;;;2.00;1.33;;;;;;;24.79;44.20;100824.88;4877135;29;20045;-76
2022/09/02 05:59:55;;;;;;;1.55;1.45;;;;;;;24.80;44.62;100818.91;4876990;29;20054;-76
2022/09/02 06:02:29;;;;;;;3.83;1.27;;;;;;;24.81;43.79;100825.34;4862337;29;20107;-76
2022/09/02 06:04:57;;;;;;;1.83;1.42;;;;;;;24.86;43.82;100824.22;4892165;29;20497;-76
2022/09/02 06:07:25;;;;;;;2.80;1.20;;;;;;;24.93;43.51;100827.16;4875373;29;20041;-77
2022/09/02 06:09:58;;;;;;;2.67;1.63;;;;;;;25.00;43.57;100832.06;4857567;29;20069;-77
2022/09/02 06:12:29;;;;;;;2.35;1.40;;;;;;;25.08;42.91;100833.81;4861442;29;20049;-76
2022/09/02 06:14:58;;;;;;;2.20;1.58;;;;;;;25.26;42.51;100834.09;4856232;29;20405;-77
2022/09/02 06:17:27;;;;;;;2.88;1.50;;;;;;;25.36;41.32;100833.47;4870653;29;20049;-77
2022/09/02 06:20:03;;;;;;;1.42;1.33;;;;;;;25.26;41.11;100830.50;4860539;29;20049;-77
2022/09/02 06:22:44;;;;;;;1.40;1.30;;;;;;;25.25;41.60;100831.66;4880072;29;20046;-77
2022/09/02 06:25:12;;;;;;;1.88;1.23;;;;;;;25.19;40.82;100823.59;4875079;29;20401;-77
2022/09/02 06:27:42;;;;;;;1.70;1.33;;;;;;;25.28;41.53;100826.13;4861482;29;20072;-76
2022/09/02 06:30:14;;;;;;;1.55;1.15;;;;;;;25.39;40.71;100819.88;4861495;29;20069;-77
2022/09/02 06:32:43;;;;;;;1.38;1.20;;;;;;;25.33;40.75;100834.19;4881091;29;20606;-77
2022/09/02 06:35:19;;;;;;;1.45;1.35;;;;;;;25.16;40.42;100827.13;4858847;29;21400;-76
2022/09/02 06:37:47;;;;;;;1.20;1.10;;;;;;;25.31;41.48;100839.38;4870018;29;20364;-76
2022/09/02 06:40:17;;;;;;;1.40;1.30;;;;;;;25.31;41.08;100830.97;4857800;29;20037;-76
2022/09/02 06:42:48;;;;;;;2.30;1.65;;;;;;;25.46;40.92;100837.59;4884997;29;20049;-76
2022/09/02 06:45:27;;;;;;;2.03;1.67;;;;;;;25.45;41.39;100819.19;4872519;29;20049;-76
2022/09/02 06:47:58;;;;;;;1.25;1.23;;;;;;;25.30;41.76;100826.56;4889798;29;20053;-76
2022/09/02 06:50:30;;;;;;;1.90;1.80;;;;;;;25.27;41.88;100818.09;4872260;29;20042;-77
2022/09/02 06:53:16;;;;;;;1.58;1.48;;;;;;;25.23;41.98;100821.66;4860019;29;20049;-77
2022/09/02 06:55:53;;;;;;;2.22;1.88;;;;;;;25.09;42.54;100824.22;4868747;29;20057;-77
2022/09/02 06:58:22;;;;;;;2.13;1.75;;;;;;;25.40;42.17;100819.50;4871073;29;20049;-77
2022/09/02 07:00:51;;;;;;;3.90;2.35;;;;;;;25.34;41.86;100819.03;4888667;29;20069;-77
2022/09/02 07:06:10;;;;;;;4.78;1.70;;;;;;;24.99;42.74;100820.06;4857858;29;20493;-78
2022/09/02 07:08:44;;;;;;;1.67;1.58;;;;;;;25.11;42.74;100821.84;4874958;29;20062;-77
2022/09/02 07:11:22;;;;;;;3.10;1.70;;;;;;;25.05;42.33;100831.75;4867126;29;20049;-77
2022/09/02 07:13:53;;;;;;;2.05;1.85;;;;;;;25.04;42.87;100828.16;4873368;29;20405;-77
2022/09/02 07:16:22;;;;;;;1.60;1.50;;;;;;;24.91;43.44;100830.31;4888433;29;20048;-78
2022/09/02 07:18:56;;;;;;;1.83;1.52;;;;;;;25.16;43.13;100829.94;4869190;29;20054;-78
2022/09/02 07:21:27;;;;;;;2.03;1.52;;;;;;;25.43;42.29;100826.34;4842932;29;20055;-77
2022/09/02 07:24:00;;;;;;;2.58;1.60;;;;;;;25.27;43.10;100824.50;4869381;29;20048;-78
2022/09/02 07:26:29;;;;;;;1.45;1.35;;;;;;;25.63;42.66;100829.88;4867092;29;20480;-77
2022/09/02 07:28:58;;;;;;;1.83;1.67;;;;;;;25.91;42.16;100825.88;4860163;29;20045;-78
2022/09/02 07:31:28;;;;;;;4.32;1.75;;;;;;;25.76;42.45;100822.84;4852011;29;20046;-77
2022/09/02 07:33:58;;;;;;;1.70;1.60;;;;;;;25.70;43.41;100832.78;4857782;29;20045;-77
2022/09/02 07:36:27;;;;;;;1.88;1.40;;;;;;;25.86;42.72;100837.41;4859983;29;20038;-78
2022/09/02 07:38:56;;;;;;;2.03;1.67;;;;;;;25.98;42.14;100833.53;4887727;29;20041;-77
2022/09/02 07:41:25;;;;;;;1.75;1.65;;;;;;;26.15;42.01;100823.78;4856625;29;20409;-77
2022/09/02 07:43:54;;;;;;;1.67;1.55;;;;;;;26.03;42.25;100836.84;4885607;29;20037;-78
2022/09/02 07:46:30;;;;;;;1.95;1.85;;;;;;;25.84;43.02;100834.97;4881304;29;20049;-76
2022/09/02 07:49:06;;;;;;;1.60;1.50;;;;;;;25.99;42.88;100837.97;4884406;29;20045;-76
2022/09/02 07:51:40;;;;;;;2.47;1.67;;;;;;;25.84;42.13;100834.97;4884719;29;20053;-77
2022/09/02 07:54:11;;;;;;;2.00;1.90;;;;;;;25.74;42.59;100839.25;4882929;29;20046;-76
2022/09/02 07:56:42;;;;;;;3.58;1.88;;;;;;;25.81;42.64;100840.53;4882976;29;20049;-77
2022/09/02 07:59:10;;;;;;;1.92;1.60;;;;;;;25.60;43.75;100841.84;4871952;29;20054;-77
2022/09/02 08:01:42;;;;;;;1.80;1.70;;;;;;;25.91;43.38;100845.50;4870749;29;20046;-77
2022/09/02 08:04:18;;;;;;;2.00;1.65;;;;;;;25.69;43.73;100844.34;4857020;29;20049;-76
2022/09/02 08:06:46;;;;;;;2.42;1.60;;;;;;;25.74;42.54;100841.25;4851077;29;20054;-77
2022/09/02 08:09:14;;;;;;;2.60;1.52;;;;;;;26.26;42.09;100841.56;4858930;29;20049;-78
2022/09/02 08:11:45;;;;;;;5.43;1.58;;;;;;;26.51;41.30;100843.03;4858882;29;20049;-77
2022/09/02 08:14:16;;;;;;;1.83;1.48;;;;;;;26.36;41.77;100847.66;4856224;29;20056;-77
2022/09/02 08:16:46;;;;;;;2.35;1.83;;;;;;;26.59;41.86;100836.31;4858809;29;20048;-78
2022/09/02 08:19:14;;;;;;;4.07;1.63;;;;;;;26.74;40.69;100836.44;4880014;29;20045;-77
2022/09/02 08:21:44;;;;;;;2.10;1.90;;;;;;;26.79;41.63;100836.09;4856937;29;20050;-78
2022/09/02 08:24:12;;;;;;;2.00;1.80;;;;;;;26.78;42.09;100840.91;4850345;29;20079;-77
2022/09/02 08:26:40;;;;;;;1.90;1.50;;;;;;;26.82;40.97;100833.31;4859232;29;20049;-79
2022/09/02 08:29:08;;;;;;;1.40;1.30;;;;;;;26.82;40.51;100824.91;4858307;29;20874;-78
2022/09/02 08:31:38;;;;;;;1.98;1.42;;;;;;;26.95;39.54;100833.88;4857828;29;20053;-78
2022/09/02 08:34:07;;;;;;;1.73;1.38;;;;;;;26.82;39.78;100836.13;4857211;29;20054;-78
2022/09/02 08:36:35;;;;;;;1.83;1.73;;;;;;;26.90;40.57;100825.78;4852273;29;20069;-78
2022/09/02 08:39:03;;;;;;;3.22;1.50;;;;;;;26.70;40.08;100833.63;4851523;29;20053;-78
2022/09/02 08:41:43;;;;;;;2.78;1.60;;;;;;;26.83;39.15;100820.91;4851129;29;20045;-77
2022/09/02 08:44:17;;;;;;;1.60;1.50;;;;;;;26.86;40.13;100836.16;4856803;29;20057;-77
2022/09/02 08:47:00;;;;;;;1.80;1.67;;;;;;;26.93;39.86;100832.66;4855590;29;20056;-76
2022/09/02 08:49:33;;;;;;;;;;;;;;;27.20;39.86;100833.28;4857319;29;20049;-78
2022/09/02 08:52:04;;;;;;;1.55;1.45;;;;;;;27.04;38.70;100822.34;4857060;29;19934;-77
2022/09/02 08:54:50;;;;;;;1.40;1.30;;;;;;;27.25;38.47;100834.91;4856741;29;20041;-77
2022/09/02 08:57:19;;;;;;;2.03;1.42;;;;;;;27.21;37.92;100822.84;4857107;29;20065;-77
2022/09/02 08:59:47;;;;;;;1.95;1.58;;;;;;;26.98;38.06;100826.69;4856584;29;20053;-77
2022/09/02 09:02:56;;;;;;;1.88;1.77;;;;;;;27.36;37.49;100823.75;4859108;29;20508;-77
2022/09/02 09:05:43;;;;;;;1.35;1.23;;;;;;;27.06;37.62;100814.31;4857173;29;20401;-77
2022/09/02 09:08:19;;;;;;;2.25;1.50;;;;;;;27.36;37.84;100816.13;4858379;29;20056;-78
2022/09/02 09:11:23;;;;;;;1.58;1.23;;;;;;;27.30;37.56;100816.88;4849903;29;20052;-77
2022/09/02 09:14:05;;;;;;;2.35;1.48;;;;;;;27.71;37.24;100821.59;4857337;29;20056;-78
2022/09/02 09:16:38;;;;;;;3.10;1.20;;;;;;;27.18;36.62;100823.63;4858838;29;20456;-77
2022/09/02 09:19:12;;;;;;;2.38;1.52;;;;;;;27.23;35.82;100820.47;4857580;29;20085;-77
2022/09/02 09:22:16;;;;;;;2.20;1.40;;;;;;;27.45;36.98;100823.41;4859940;29;20049;-78
2022/09/02 09:25:17;;;;;;;2.25;1.25;;;;;;;27.49;36.21;100821.44;4820303;29;20073;-78
2022/09/02 09:27:48;;;;;;;1.67;1.30;;;;;;;27.21;34.36;100818.03;4816706;29;20517;-76
2022/09/02 09:30:42;;;;;;;2.03;1.60;;;;;;;27.38;34.19;100810.13;4824357;29;20403;-78
2022/09/02 09:33:42;;;;;;;2.53;1.33;;;;;;;27.56;34.52;100821.47;4782066;29;20411;-77
2022/09/02 09:37:10;;;;;;;1.23;1.13;;;;;;;27.88;33.54;100820.09;4824994;29;20524;-78
2022/09/02 09:40:20;;;;;;;2.25;1.58;;;;;;;27.96;33.57;100813.28;4799490;29;20096;-78
2022/09/02 09:43:32;;;;;;;2.15;1.35;;;;;;;27.94;33.99;100809.28;4808753;29;20073;-78
2022/09/02 09:46:39;;;;;;;1.67;1.55;;;;;;;27.88;34.60;100814.47;4820169;29;20062;-77
2022/09/02 09:50:41;;;;;;;;;;;;;;;;;;;;;
2022/09/02 09:53:22;;;;;;;2.90;1.15;;;;;;;28.42;34.23;100788.53;4820447;29;20476;-77
2022/09/02 09:56:06;;;;;;;1.25;1.15;;;;;;;28.67;33.85;100805.47;4823468;29;20061;-77
2022/09/02 09:58:41;;;;;;;1.42;1.33;;;;;;;28.33;34.65;100802.22;4890169;29;20046;-76
2022/09/02 10:01:28;;;;;;;1.63;1.52;;;;;;;28.10;34.30;100790.03;4861430;29;20060;-77
2022/09/02 10:03:59;;;;;;;1.35;1.30;;;;;;;28.49;34.34;100794.19;4861753;29;20045;-78
2022/09/02 10:06:31;;;;;;;2.28;1.40;;;;;;;28.75;33.20;100797.03;4859062;29;20068;-78
2022/09/02 10:09:00;;;;;;;1.50;1.40;;;;;;;28.58;33.81;100788.16;4854445;29;20061;-77
2022/09/02 10:11:31;;;;;;;1.40;1.20;;;;;;;28.63;33.12;100784.97;4858097;29;20053;-78
2022/09/02 10:14:08;;;;;;;2.47;1.50;;;;;;;28.36;33.40;100776.06;4873004;29;20061;-78
2022/09/02 10:17:03;;;;;;;1.30;1.23;;;;;;;28.82;33.54;100786.59;4858719;29;20489;-78
2022/09/02 10:19:46;;;;;;;3.47;1.30;;;;;;;28.61;32.42;100778.13;4858202;29;20050;-78
2022/09/02 10:22:20;;;;;;;2.15;1.40;;;;;;;28.72;32.74;100781.75;4861436;29;20053;-78
2022/09/02 10:25:01;;;;;;;1.42;1.33;;;;;;;28.47;33.03;100781.72;4855566;29;20056;-78
2022/09/02 10:28:10;;;;;;;1.77;1.52;;;;;;;28.55;33.69;100774.91;4858307;29;20056;-79
2022/09/02 10:31:07;;;;;;;1.00;1.00;;;;;;;28.85;32.83;100779.34;4854588;29;20045;-77
2022/09/02 10:34:11;;;;;;;3.80;1.73;;;;;;;28.58;32.46;100776.91;4860891;29;20053;-78
2022/09/02 10:36:51;;;;;;;1.52;1.42;;;;;;;28.81;32.60;100782.16;4858307;29;20405;-77
2022/09/02 10:39:37;;;;;;;1.60;1.50;;;;;;;28.93;32.76;100785.81;4855753;29;20064;-78
2022/09/02 10:42:42;;;;;;;2.08;1.75;;;;;;;28.87;33.89;100779.78;4857178;29;20286;-77
2022/09/02 10:45:34;;;;;;;1.50;1.40;;;;;;;29.20;32.98;100776.94;4856165;29;20049;-77
2022/09/02 10:48:08;;;;;;;1.50;1.40;;;;;;;29.24;32.81;100775.72;4859551;29;20342;-77
2022/09/02 10:50:41;;;;;;;;;;;;;;;29.32;32.37;100772.91;4855306;29;20069;-77
2022/09/02 10:53:25;;;;;;;2.33;1.20;;;;;;;29.24;32.22;100766.47;4855481;29;19924;-78
2022/09/02 10:56:20;;;;;;;1.55;1.45;;;;;;;29.28;32.10;100763.63;4856945;29;20053;-76
2022/09/02 10:58:58;;;;;;;1.67;1.33;;;;;;;29.55;32.34;100754.72;4854056;29;20041;-77
2022/09/02 11:01:42;;;;;;;1.60;1.50;;;;;;;29.57;32.09;100760.78;4856515;29;20520;-76
2022/09/02 11:04:19;;;;;;;1.48;1.30;;;;;;;29.30;31.94;100758.41;4857931;29;20048;-78
2022/09/02 11:06:56;;;;;;;1.92;1.35;;;;;;;29.63;32.16;100765.56;4855224;29;20053;-77
2022/09/02 11:09:43;;;;;;;3.70;1.90;;;;;;;29.49;32.51;100749.53;4855393;29;20057;-75
2022/09/02 11:12:19;;;;;;;2.33;1.83;;;;;;;29.64;32.60;100743.84;4857377;29;20052;-77
2022/09/02 11:15:13;;;;;;;1.63;1.52;;;;;;;29.82;32.05;100737.31;4858551;29;20045;-77
2022/09/02 11:18:00;;;;;;;1.60;1.50;;;;;;;29.65;32.37;100739.78;4854992;29;20503;-76
2022/09/02 11:21:13;;;;;;;1.63;1.50;;;;;;;30.17;32.14;100739.16;4855365;29;20134;-77
2022/09/02 11:24:05;;;;;;;1.95;1.67;;;;;;;30.11;30.95;100731.56;4847496;29;20402;-77
2022/09/02 11:26:55;;;;;;;2.60;1.33;;;;;;;30.27;31.72;100729.03;4845708;29;20870;-77
2022/09/02 11:29:58;;;;;;;1.55;1.45;;;;;;;30.47;31.45;100731.31;4856704;29;20401;-77
2022/09/02 11:32:33;;;;;;;2.90;1.33;;;;;;;30.07;32.32;100739.19;4848657;29;20084;-78
2022/09/02 11:35:05;;;;;;;;;;;;;;;30.19;32.19;100741.56;4858760;29;20054;-77
2022/09/02 11:37:48;;;;;;;2.78;1.30;;;;;;;30.12;31.62;100735.97;4856656;29;19944;-77
2022/09/02 11:40:25;;;;;;;5.75;1.60;;;;;;;30.32;31.51;100727.78;4854969;29;20049;-77
2022/09/02 11:43:16;;;;;;;2.40;1.38;;;;;;;29.87;30.73;100731.25;4857600;29;20061;-77
2022/09/02 11:46:10;;;;;;;1.67;1.50;;;;;;;30.21;31.60;100719.41;4857194;29;20057;-77
2022/09/02 11:49:21;;;;;;;4.13;1.60;;;;;;;30.39;31.86;100724.13;4856407;29;20060;-77
2022/09/02 11:51:59;;;;;;;3.45;1.45;;;;;;;30.20;32.08;100717.78;4857022;29;20060;-79
2022/09/02 11:54:36;;;;;;;1.90;1.48;;;;;;;30.04;31.47;100721.88;4854268;29;20049;-77
2022/09/02 11:57:06;;;;;;;1.60;1.50;;;;;;;29.94;31.67;100722.75;4857138;29;20064;-77
2022/09/02 11:59:49;;;;;;;1.42;1.33;;;;;;;29.97;30.98;100705.00;4856584;29;20046;-77
2022/09/02 12:02:48;;;;;;;1.42;1.33;;;;;;;30.19;31.17;100704.09;4855418;29;20045;-77
2022/09/02 12:05:29;;;;;;;3.17;1.40;;;;;;;29.96;31.78;100709.03;4858228;29;20049;-78